sensor_id;sensor_type;location;lat;lon;timestamp;temperature;humidity
30069;DHT22;16894;49.456;10.644;2022-11-18T00:00:22;7.80;99.90
30069;DHT22;16894;49.456;10.644;2022-11-18T00:02:48;7.80;99.90
30069;DHT22;16894;49.456;10.644;2022-11-18T00:05:14;7.80;99.90
30069;DHT22;16894;49.456;10.644;2022-11-18T00:07:39;7.90;99.90
30069;DHT22;16894;49.456;10.644;2022-11-18T00:10:05;7.80;99.90
30069;DHT22;16894;49.456;10.644;2022-11-18T00:12:31;7.80;99.90
30069;DHT22;16894;49.456;10.644;2022-11-18T00:15:15;7.80;99.90
30069;DHT22;16894;49.456;10.644;2022-11-18T00:17:40;7.70;99.90
30069;DHT22;16894;49.456;10.644;2022-11-18T00:20:06;7.70;99.90
30069;DHT22;16894;49.456;10.644;2022-11-18T00:22:32;7.70;99.90
30069;DHT22;16894;49.456;10.644;2022-11-18T00:24:57;7.70;99.90
30069;DHT22;16894;49.456;10.644;2022-11-18T00:27:23;7.70;99.90
30069;DHT22;16894;49.456;10.644;2022-11-18T00:29:48;7.70;99.90
30069;DHT22;16894;49.456;10.644;2022-11-18T00:32:14;7.70;99.90
30069;DHT22;16894;49.456;10.644;2022-11-18T00:34:40;7.70;99.90
30069;DHT22;16894;49.456;10.644;2022-11-18T00:37:07;7.70;99.90
30069;DHT22;16894;49.456;10.644;2022-11-18T00:39:32;7.70;99.90
30069;DHT22;16894;49.456;10.644;2022-11-18T00:41:58;7.60;99.90
30069;DHT22;16894;49.456;10.644;2022-11-18T00:44:42;7.60;99.90
30069;DHT22;16894;49.456;10.644;2022-11-18T00:47:07;7.50;99.90
30069;DHT22;16894;49.456;10.644;2022-11-18T00:49:33;7.60;99.90
30069;DHT22;16894;49.456;10.644;2022-11-18T00:51:59;7.60;99.90
30069;DHT22;16894;49.456;10.644;2022-11-18T00:54:25;7.50;99.90
30069;DHT22;16894;49.456;10.644;2022-11-18T00:56:51;7.60;99.90
30069;DHT22;16894;49.456;10.644;2022-11-18T00:59:16;7.60;99.90
30069;DHT22;16894;49.456;10.644;2022-11-18T01:01:42;7.60;99.90
30069;DHT22;16894;49.456;10.644;2022-11-18T01:04:08;7.60;99.90
30069;DHT22;16894;49.456;10.644;2022-11-18T01:06:33;7.60;99.90
30069;DHT22;16894;49.456;10.644;2022-11-18T01:08:59;7.60;99.90
30069;DHT22;16894;49.456;10.644;2022-11-18T01:11:25;7.50;99.90
30069;DHT22;16894;49.456;10.644;2022-11-18T01:14:09;7.50;99.90
30069;DHT22;16894;49.456;10.644;2022-11-18T01:16:35;7.50;99.90
30069;DHT22;16894;49.456;10.644;2022-11-18T01:19:00;7.50;99.90
30069;DHT22;16894;49.456;10.644;2022-11-18T01:21:28;7.50;99.90
30069;DHT22;16894;49.456;10.644;2022-11-18T01:23:53;7.40;99.90
30069;DHT22;16894;49.456;10.644;2022-11-18T01:26:19;7.40;99.90
30069;DHT22;16894;49.456;10.644;2022-11-18T01:28:45;7.40;99.90
30069;DHT22;16894;49.456;10.644;2022-11-18T01:31:13;7.40;99.90
30069;DHT22;16894;49.456;10.644;2022-11-18T01:33:40;7.30;99.90
30069;DHT22;16894;49.456;10.644;2022-11-18T01:36:23;7.30;99.90
30069;DHT22;16894;49.456;10.644;2022-11-18T01:38:50;7.30;99.90
30069;DHT22;16894;49.456;10.644;2022-11-18T01:41:17;7.30;99.90
30069;DHT22;16894;49.456;10.644;2022-11-18T01:44:04;7.30;99.90
30069;DHT22;16894;49.456;10.644;2022-11-18T01:46:32;7.30;99.90
30069;DHT22;16894;49.456;10.644;2022-11-18T01:49:10;7.30;99.90
30069;DHT22;16894;49.456;10.644;2022-11-18T01:51:50;7.30;99.90
30069;DHT22;16894;49.456;10.644;2022-11-18T01:54:24;7.20;99.90
30069;DHT22;16894;49.456;10.644;2022-11-18T01:56:54;7.20;99.90
30069;DHT22;16894;49.456;10.644;2022-11-18T01:59:24;7.20;99.90
30069;DHT22;16894;49.456;10.644;2022-11-18T02:01:50;7.10;99.90
30069;DHT22;16894;49.456;10.644;2022-11-18T02:04:16;7.10;99.90
30069;DHT22;16894;49.456;10.644;2022-11-18T02:06:43;7.10;99.90
30069;DHT22;16894;49.456;10.644;2022-11-18T02:09:10;7.10;99.90
30069;DHT22;16894;49.456;10.644;2022-11-18T02:11:36;7.10;99.90
30069;DHT22;16894;49.456;10.644;2022-11-18T02:14:21;7.00;99.90
30069;DHT22;16894;49.456;10.644;2022-11-18T02:19:38;6.90;99.90
30069;DHT22;16894;49.456;10.644;2022-11-18T02:30:12;6.60;99.90
30069;DHT22;16894;49.456;10.644;2022-11-18T02:32:55;6.60;99.90
30069;DHT22;16894;49.456;10.644;2022-11-18T02:41:05;6.50;99.90
30069;DHT22;16894;49.456;10.644;2022-11-18T02:43:33;6.60;99.90
30069;DHT22;16894;49.456;10.644;2022-11-18T02:46:05;6.60;99.90
30069;DHT22;16894;49.456;10.644;2022-11-18T02:48:34;6.60;99.90
30069;DHT22;16894;49.456;10.644;2022-11-18T02:51:02;6.60;99.90
30069;DHT22;16894;49.456;10.644;2022-11-18T02:53:30;6.60;99.90
30069;DHT22;16894;49.456;10.644;2022-11-18T02:55:57;6.60;99.90
30069;DHT22;16894;49.456;10.644;2022-11-18T02:58:25;6.60;99.90
30069;DHT22;16894;49.456;10.644;2022-11-18T03:01:19;6.60;99.90
30069;DHT22;16894;49.456;10.644;2022-11-18T03:03:45;6.70;99.90
30069;DHT22;16894;49.456;10.644;2022-11-18T03:06:42;6.70;99.90
30069;DHT22;16894;49.456;10.644;2022-11-18T03:22:46;6.80;99.90
30069;DHT22;16894;49.456;10.644;2022-11-18T03:25:27;6.80;99.90
30069;DHT22;16894;49.456;10.644;2022-11-18T03:29:16;6.80;99.90
30069;DHT22;16894;49.456;10.644;2022-11-18T03:31:25;6.80;99.90
30069;DHT22;16894;49.456;10.644;2022-11-18T03:34:02;6.80;99.90
30069;DHT22;16894;49.456;10.644;2022-11-18T03:36:51;6.80;99.90
30069;DHT22;16894;49.456;10.644;2022-11-18T03:39:19;6.80;99.90
30069;DHT22;16894;49.456;10.644;2022-11-18T03:42:35;6.80;99.90
30069;DHT22;16894;49.456;10.644;2022-11-18T03:45:30;6.70;99.90
30069;DHT22;16894;49.456;10.644;2022-11-18T03:48:16;6.80;99.90
30069;DHT22;16894;49.456;10.644;2022-11-18T03:50:49;6.90;99.90
30069;DHT22;16894;49.456;10.644;2022-11-18T03:53:17;6.90;99.90
30069;DHT22;16894;49.456;10.644;2022-11-18T03:55:48;6.90;99.90
30069;DHT22;16894;49.456;10.644;2022-11-18T03:58:26;6.90;99.90
30069;DHT22;16894;49.456;10.644;2022-11-18T04:01:02;6.90;99.90
30069;DHT22;16894;49.456;10.644;2022-11-18T04:03:28;7.00;99.90
30069;DHT22;16894;49.456;10.644;2022-11-18T04:06:03;6.90;99.90
30069;DHT22;16894;49.456;10.644;2022-11-18T04:08:39;6.90;99.90
30069;DHT22;16894;49.456;10.644;2022-11-18T04:11:20;6.90;99.90
30069;DHT22;16894;49.456;10.644;2022-11-18T04:14:07;6.90;99.90
30069;DHT22;16894;49.456;10.644;2022-11-18T04:16:41;7.00;99.90
30069;DHT22;16894;49.456;10.644;2022-11-18T04:19:07;6.90;99.90
30069;DHT22;16894;49.456;10.644;2022-11-18T04:21:33;6.90;99.90
30069;DHT22;16894;49.456;10.644;2022-11-18T04:23:58;6.80;99.90
30069;DHT22;16894;49.456;10.644;2022-11-18T04:26:24;6.80;99.90
30069;DHT22;16894;49.456;10.644;2022-11-18T04:28:49;6.80;99.90
30069;DHT22;16894;49.456;10.644;2022-11-18T04:31:15;6.80;99.90
30069;DHT22;16894;49.456;10.644;2022-11-18T04:33:41;6.80;99.90
30069;DHT22;16894;49.456;10.644;2022-11-18T04:36:06;6.90;99.90
30069;DHT22;16894;49.456;10.644;2022-11-18T04:38:32;6.90;99.90
30069;DHT22;16894;49.456;10.644;2022-11-18T04:40:58;6.90;99.90
30069;DHT22;16894;49.456;10.644;2022-11-18T04:43:23;6.90;99.90
30069;DHT22;16894;49.456;10.644;2022-11-18T04:45:49;6.90;99.90
30069;DHT22;16894;49.456;10.644;2022-11-18T04:48:14;6.90;99.90
30069;DHT22;16894;49.456;10.644;2022-11-18T04:50:40;6.90;99.90
30069;DHT22;16894;49.456;10.644;2022-11-18T04:53:06;6.80;99.90
30069;DHT22;16894;49.456;10.644;2022-11-18T04:55:35;6.80;99.90
30069;DHT22;16894;49.456;10.644;2022-11-18T04:58:00;6.80;99.90
30069;DHT22;16894;49.456;10.644;2022-11-18T05:00:26;6.80;99.90
30069;DHT22;16894;49.456;10.644;2022-11-18T05:02:52;6.70;99.90
30069;DHT22;16894;49.456;10.644;2022-11-18T05:05:17;6.80;99.90
30069;DHT22;16894;49.456;10.644;2022-11-18T05:07:43;6.80;99.90
30069;DHT22;16894;49.456;10.644;2022-11-18T05:10:09;6.80;99.90
30069;DHT22;16894;49.456;10.644;2022-11-18T05:12:34;6.80;99.90
30069;DHT22;16894;49.456;10.644;2022-11-18T05:15:16;6.90;99.90
30069;DHT22;16894;49.456;10.644;2022-11-18T05:17:42;6.80;99.90
30069;DHT22;16894;49.456;10.644;2022-11-18T05:20:08;6.80;99.90
30069;DHT22;16894;49.456;10.644;2022-11-18T05:22:33;6.80;99.90
30069;DHT22;16894;49.456;10.644;2022-11-18T05:24:59;6.80;99.90
30069;DHT22;16894;49.456;10.644;2022-11-18T05:27:25;6.80;99.90
30069;DHT22;16894;49.456;10.644;2022-11-18T05:29:51;6.80;99.90
30069;DHT22;16894;49.456;10.644;2022-11-18T05:32:17;6.80;99.90
30069;DHT22;16894;49.456;10.644;2022-11-18T05:34:43;6.70;99.90
30069;DHT22;16894;49.456;10.644;2022-11-18T05:37:09;6.70;99.90
30069;DHT22;16894;49.456;10.644;2022-11-18T05:39:35;6.80;99.90
30069;DHT22;16894;49.456;10.644;2022-11-18T05:42:01;6.80;99.90
30069;DHT22;16894;49.456;10.644;2022-11-18T05:44:45;6.80;99.90
30069;DHT22;16894;49.456;10.644;2022-11-18T05:47:11;6.80;99.90
30069;DHT22;16894;49.456;10.644;2022-11-18T05:49:36;6.80;99.90
30069;DHT22;16894;49.456;10.644;2022-11-18T05:52:02;6.80;99.90
30069;DHT22;16894;49.456;10.644;2022-11-18T05:54:28;6.90;99.90
30069;DHT22;16894;49.456;10.644;2022-11-18T05:56:54;7.00;99.90
30069;DHT22;16894;49.456;10.644;2022-11-18T05:59:19;6.90;99.90
30069;DHT22;16894;49.456;10.644;2022-11-18T06:01:58;7.00;99.90
30069;DHT22;16894;49.456;10.644;2022-11-18T06:04:42;7.00;99.90
30069;DHT22;16894;49.456;10.644;2022-11-18T06:07:15;7.10;99.90
30069;DHT22;16894;49.456;10.644;2022-11-18T06:09:45;7.10;99.90
30069;DHT22;16894;49.456;10.644;2022-11-18T06:12:15;7.20;99.90
30069;DHT22;16894;49.456;10.644;2022-11-18T06:14:48;7.10;99.90
30069;DHT22;16894;49.456;10.644;2022-11-18T06:17:21;7.10;99.90
30069;DHT22;16894;49.456;10.644;2022-11-18T06:19:48;7.10;99.90
30069;DHT22;16894;49.456;10.644;2022-11-18T06:22:14;7.10;99.90
30069;DHT22;16894;49.456;10.644;2022-11-18T06:24:40;7.10;99.90
30069;DHT22;16894;49.456;10.644;2022-11-18T06:27:07;7.10;99.90
30069;DHT22;16894;49.456;10.644;2022-11-18T06:29:33;7.10;99.90
30069;DHT22;16894;49.456;10.644;2022-11-18T06:31:58;7.20;99.90
30069;DHT22;16894;49.456;10.644;2022-11-18T06:34:24;7.20;99.90
30069;DHT22;16894;49.456;10.644;2022-11-18T06:36:50;7.20;99.90
30069;DHT22;16894;49.456;10.644;2022-11-18T06:39:15;7.20;99.90
30069;DHT22;16894;49.456;10.644;2022-11-18T06:41:41;7.20;99.90
30069;DHT22;16894;49.456;10.644;2022-11-18T06:44:06;7.20;99.90
30069;DHT22;16894;49.456;10.644;2022-11-18T06:46:32;7.20;99.90
30069;DHT22;16894;49.456;10.644;2022-11-18T06:49:16;7.20;99.90
30069;DHT22;16894;49.456;10.644;2022-11-18T06:51:42;7.30;99.90
30069;DHT22;16894;49.456;10.644;2022-11-18T06:54:08;7.20;99.90
30069;DHT22;16894;49.456;10.644;2022-11-18T06:56:33;7.30;99.90
30069;DHT22;16894;49.456;10.644;2022-11-18T06:58:59;7.30;99.90
30069;DHT22;16894;49.456;10.644;2022-11-18T07:01:27;7.30;99.90
30069;DHT22;16894;49.456;10.644;2022-11-18T07:03:54;7.40;99.90
30069;DHT22;16894;49.456;10.644;2022-11-18T07:06:22;7.30;99.90
30069;DHT22;16894;49.456;10.644;2022-11-18T07:08:49;7.40;99.90
30069;DHT22;16894;49.456;10.644;2022-11-18T07:11:16;7.40;99.90
30069;DHT22;16894;49.456;10.644;2022-11-18T07:13:42;7.40;99.90
30069;DHT22;16894;49.456;10.644;2022-11-18T07:16:11;7.40;99.90
30069;DHT22;16894;49.456;10.644;2022-11-18T07:18:38;7.40;99.90
30069;DHT22;16894;49.456;10.644;2022-11-18T07:21:10;7.40;99.90
30069;DHT22;16894;49.456;10.644;2022-11-18T07:23:37;7.40;99.90
30069;DHT22;16894;49.456;10.644;2022-11-18T07:26:03;7.40;99.90
30069;DHT22;16894;49.456;10.644;2022-11-18T07:28:29;7.30;99.90
30069;DHT22;16894;49.456;10.644;2022-11-18T07:31:06;7.40;99.90
30069;DHT22;16894;49.456;10.644;2022-11-18T07:33:33;7.40;99.90
30069;DHT22;16894;49.456;10.644;2022-11-18T07:36:00;7.30;99.90
30069;DHT22;16894;49.456;10.644;2022-11-18T07:38:26;7.30;99.90
30069;DHT22;16894;49.456;10.644;2022-11-18T07:40:51;7.30;99.90
30069;DHT22;16894;49.456;10.644;2022-11-18T07:43:17;7.30;99.90
30069;DHT22;16894;49.456;10.644;2022-11-18T07:45:42;7.30;99.90
30069;DHT22;16894;49.456;10.644;2022-11-18T07:48:08;7.30;99.90
30069;DHT22;16894;49.456;10.644;2022-11-18T07:50:34;7.30;99.90
30069;DHT22;16894;49.456;10.644;2022-11-18T07:52:59;7.30;99.90
30069;DHT22;16894;49.456;10.644;2022-11-18T07:55:25;7.30;99.90
30069;DHT22;16894;49.456;10.644;2022-11-18T07:57:51;7.40;99.90
30069;DHT22;16894;49.456;10.644;2022-11-18T08:00:18;7.30;99.90
30069;DHT22;16894;49.456;10.644;2022-11-18T08:02:44;7.40;99.90
30069;DHT22;16894;49.456;10.644;2022-11-18T08:05:09;7.40;99.90
30069;DHT22;16894;49.456;10.644;2022-11-18T08:07:35;7.40;99.90
30069;DHT22;16894;49.456;10.644;2022-11-18T08:10:00;7.40;99.90
30069;DHT22;16894;49.456;10.644;2022-11-18T08:12:28;7.40;99.90
30069;DHT22;16894;49.456;10.644;2022-11-18T08:14:55;7.40;99.90
30069;DHT22;16894;49.456;10.644;2022-11-18T08:17:21;7.40;99.90
30069;DHT22;16894;49.456;10.644;2022-11-18T08:19:46;7.50;99.90
30069;DHT22;16894;49.456;10.644;2022-11-18T08:22:12;7.40;99.90
30069;DHT22;16894;49.456;10.644;2022-11-18T08:24:37;7.40;99.90
30069;DHT22;16894;49.456;10.644;2022-11-18T08:27:03;7.50;99.90
30069;DHT22;16894;49.456;10.644;2022-11-18T08:29:29;7.50;99.90
30069;DHT22;16894;49.456;10.644;2022-11-18T08:31:54;7.50;99.90
30069;DHT22;16894;49.456;10.644;2022-11-18T08:34:20;7.50;99.90
30069;DHT22;16894;49.456;10.644;2022-11-18T08:36:46;7.50;99.90
30069;DHT22;16894;49.456;10.644;2022-11-18T08:39:11;7.50;99.90
30069;DHT22;16894;49.456;10.644;2022-11-18T08:41:42;7.50;99.90
30069;DHT22;16894;49.456;10.644;2022-11-18T08:44:12;7.50;99.90
30069;DHT22;16894;49.456;10.644;2022-11-18T08:46:37;7.50;99.90
30069;DHT22;16894;49.456;10.644;2022-11-18T08:49:03;7.50;99.90
30069;DHT22;16894;49.456;10.644;2022-11-18T08:51:29;7.40;99.90
30069;DHT22;16894;49.456;10.644;2022-11-18T08:53:55;7.50;99.90
30069;DHT22;16894;49.456;10.644;2022-11-18T08:56:22;7.40;99.90
30069;DHT22;16894;49.456;10.644;2022-11-18T08:58:49;7.50;99.90
30069;DHT22;16894;49.456;10.644;2022-11-18T09:01:15;7.40;99.90
30069;DHT22;16894;49.456;10.644;2022-11-18T09:03:41;7.40;99.90
30069;DHT22;16894;49.456;10.644;2022-11-18T09:06:18;7.40;99.90
30069;DHT22;16894;49.456;10.644;2022-11-18T09:08:44;7.40;99.90
30069;DHT22;16894;49.456;10.644;2022-11-18T09:11:12;7.40;99.90
30069;DHT22;16894;49.456;10.644;2022-11-18T09:13:38;7.40;99.90
30069;DHT22;16894;49.456;10.644;2022-11-18T09:16:04;7.40;99.90
30069;DHT22;16894;49.456;10.644;2022-11-18T09:18:30;7.50;99.90
30069;DHT22;16894;49.456;10.644;2022-11-18T09:20:58;7.40;99.90
30069;DHT22;16894;49.456;10.644;2022-11-18T09:23:24;7.40;99.90
30069;DHT22;16894;49.456;10.644;2022-11-18T09:26:17;7.40;99.90
30069;DHT22;16894;49.456;10.644;2022-11-18T09:28:43;7.40;99.90
30069;DHT22;16894;49.456;10.644;2022-11-18T09:31:15;7.40;99.90
30069;DHT22;16894;49.456;10.644;2022-11-18T09:33:41;7.30;99.90
30069;DHT22;16894;49.456;10.644;2022-11-18T09:36:23;7.30;99.90
30069;DHT22;16894;49.456;10.644;2022-11-18T09:38:50;7.30;99.90
30069;DHT22;16894;49.456;10.644;2022-11-18T09:49:31;7.20;99.90
30069;DHT22;16894;49.456;10.644;2022-11-18T09:52:02;7.20;99.90
30069;DHT22;16894;49.456;10.644;2022-11-18T09:54:34;7.20;99.90
30069;DHT22;16894;49.456;10.644;2022-11-18T09:57:00;7.30;99.90
30069;DHT22;16894;49.456;10.644;2022-11-18T09:59:29;7.30;99.90
30069;DHT22;16894;49.456;10.644;2022-11-18T10:02:18;7.20;99.90
30069;DHT22;16894;49.456;10.644;2022-11-18T10:04:47;7.30;99.90
30069;DHT22;16894;49.456;10.644;2022-11-18T10:07:19;7.20;99.90
30069;DHT22;16894;49.456;10.644;2022-11-18T10:09:47;7.30;99.90
30069;DHT22;16894;49.456;10.644;2022-11-18T10:12:31;7.30;99.90
30069;DHT22;16894;49.456;10.644;2022-11-18T10:15:20;7.30;99.90
30069;DHT22;16894;49.456;10.644;2022-11-18T10:18:03;7.30;99.90
30069;DHT22;16894;49.456;10.644;2022-11-18T10:23:58;7.30;99.90
30069;DHT22;16894;49.456;10.644;2022-11-18T10:26:01;7.40;99.90
30069;DHT22;16894;49.456;10.644;2022-11-18T10:28:29;7.40;99.90
30069;DHT22;16894;49.456;10.644;2022-11-18T10:31:10;7.40;99.90
30069;DHT22;16894;49.456;10.644;2022-11-18T10:33:37;7.50;99.90
30069;DHT22;16894;49.456;10.644;2022-11-18T10:38:34;7.50;99.90
30069;DHT22;16894;49.456;10.644;2022-11-18T10:41:05;7.50;99.90
30069;DHT22;16894;49.456;10.644;2022-11-18T10:43:54;7.50;99.90
30069;DHT22;16894;49.456;10.644;2022-11-18T10:51:33;7.60;99.90
30069;DHT22;16894;49.456;10.644;2022-11-18T10:54:18;7.60;99.90
30069;DHT22;16894;49.456;10.644;2022-11-18T10:56:59;7.70;99.90
30069;DHT22;16894;49.456;10.644;2022-11-18T10:59:40;7.70;99.90
30069;DHT22;16894;49.456;10.644;2022-11-18T11:04:44;7.80;99.90
30069;DHT22;16894;49.456;10.644;2022-11-18T11:07:26;7.80;99.90
30069;DHT22;16894;49.456;10.644;2022-11-18T11:12:38;7.90;99.90
30069;DHT22;16894;49.456;10.644;2022-11-18T11:15:34;7.90;99.90
30069;DHT22;16894;49.456;10.644;2022-11-18T11:18:24;7.90;99.90
30069;DHT22;16894;49.456;10.644;2022-11-18T11:21:19;8.00;99.90
30069;DHT22;16894;49.456;10.644;2022-11-18T11:23:47;8.00;99.90
30069;DHT22;16894;49.456;10.644;2022-11-18T11:26:34;8.00;99.90
30069;DHT22;16894;49.456;10.644;2022-11-18T11:32:39;8.00;99.90
30069;DHT22;16894;49.456;10.644;2022-11-18T11:41:08;7.90;99.90
30069;DHT22;16894;49.456;10.644;2022-11-18T11:54:18;7.80;99.90
30069;DHT22;16894;49.456;10.644;2022-11-18T11:57:03;7.80;99.90
30069;DHT22;16894;49.456;10.644;2022-11-18T11:59:51;7.70;99.90
30069;DHT22;16894;49.456;10.644;2022-11-18T12:08:03;7.80;99.90
30069;DHT22;16894;49.456;10.644;2022-11-18T12:21:03;7.90;99.90
30069;DHT22;16894;49.456;10.644;2022-11-18T12:23:30;8.00;99.90
30069;DHT22;16894;49.456;10.644;2022-11-18T12:28:38;8.10;99.90
30069;DHT22;16894;49.456;10.644;2022-11-18T12:38:58;8.10;99.90
30069;DHT22;16894;49.456;10.644;2022-11-18T12:44:28;8.00;99.90
30069;DHT22;16894;49.456;10.644;2022-11-18T12:47:01;8.00;99.90
30069;DHT22;16894;49.456;10.644;2022-11-18T12:51:54;8.10;99.90
30069;DHT22;16894;49.456;10.644;2022-11-18T12:57:00;8.10;99.90
30069;DHT22;16894;49.456;10.644;2022-11-18T12:59:32;8.00;99.90
30069;DHT22;16894;49.456;10.644;2022-11-18T13:02:04;8.00;99.90
30069;DHT22;16894;49.456;10.644;2022-11-18T13:04:29;8.10;99.90
30069;DHT22;16894;49.456;10.644;2022-11-18T13:06:55;8.10;99.90
30069;DHT22;16894;49.456;10.644;2022-11-18T13:09:25;8.10;99.90
30069;DHT22;16894;49.456;10.644;2022-11-18T13:26:06;8.10;99.90
30069;DHT22;16894;49.456;10.644;2022-11-18T13:28:50;8.00;99.90
30069;DHT22;16894;49.456;10.644;2022-11-18T13:34:25;8.00;99.90
30069;DHT22;16894;49.456;10.644;2022-11-18T13:36:53;8.00;99.90
30069;DHT22;16894;49.456;10.644;2022-11-18T13:39:31;8.10;99.90
30069;DHT22;16894;49.456;10.644;2022-11-18T13:44:31;8.00;99.90
30069;DHT22;16894;49.456;10.644;2022-11-18T13:52:42;8.10;99.90
30069;DHT22;16894;49.456;10.644;2022-11-18T13:55:15;8.00;99.90
30069;DHT22;16894;49.456;10.644;2022-11-18T13:57:46;8.00;99.90
30069;DHT22;16894;49.456;10.644;2022-11-18T14:00:24;8.00;99.90
30069;DHT22;16894;49.456;10.644;2022-11-18T14:03:39;8.00;99.90
30069;DHT22;16894;49.456;10.644;2022-11-18T14:05:52;8.00;99.90
30069;DHT22;16894;49.456;10.644;2022-11-18T14:08:30;8.00;99.90
30069;DHT22;16894;49.456;10.644;2022-11-18T14:10:56;7.90;99.90
30069;DHT22;16894;49.456;10.644;2022-11-18T14:13:34;7.90;99.90
30069;DHT22;16894;49.456;10.644;2022-11-18T14:18:47;7.90;99.90
30069;DHT22;16894;49.456;10.644;2022-11-18T14:21:14;7.90;99.90
30069;DHT22;16894;49.456;10.644;2022-11-18T14:23:50;7.90;99.90
30069;DHT22;16894;49.456;10.644;2022-11-18T14:26:35;8.00;99.90
30069;DHT22;16894;49.456;10.644;2022-11-18T14:29:23;8.00;99.90
30069;DHT22;16894;49.456;10.644;2022-11-18T14:32:12;8.00;99.90
30069;DHT22;16894;49.456;10.644;2022-11-18T14:34:39;7.90;99.90
30069;DHT22;16894;49.456;10.644;2022-11-18T14:37:12;7.90;99.90
30069;DHT22;16894;49.456;10.644;2022-11-18T14:39:39;7.90;99.90
30069;DHT22;16894;49.456;10.644;2022-11-18T14:42:10;7.90;99.90
30069;DHT22;16894;49.456;10.644;2022-11-18T14:44:37;7.90;99.90
30069;DHT22;16894;49.456;10.644;2022-11-18T14:47:25;7.80;99.90
30069;DHT22;16894;49.456;10.644;2022-11-18T14:49:51;7.90;99.90
30069;DHT22;16894;49.456;10.644;2022-11-18T14:52:17;7.80;99.90
30069;DHT22;16894;49.456;10.644;2022-11-18T14:54:42;7.80;99.90
30069;DHT22;16894;49.456;10.644;2022-11-18T14:57:09;7.80;99.90
30069;DHT22;16894;49.456;10.644;2022-11-18T14:59:36;7.80;99.90
30069;DHT22;16894;49.456;10.644;2022-11-18T15:02:02;7.80;99.90
30069;DHT22;16894;49.456;10.644;2022-11-18T15:04:28;7.80;99.90
30069;DHT22;16894;49.456;10.644;2022-11-18T15:06:53;7.80;99.90
30069;DHT22;16894;49.456;10.644;2022-11-18T15:09:19;7.80;99.90
30069;DHT22;16894;49.456;10.644;2022-11-18T15:11:45;7.80;99.90
30069;DHT22;16894;49.456;10.644;2022-11-18T15:14:10;7.90;99.90
30069;DHT22;16894;49.456;10.644;2022-11-18T15:16:36;7.90;99.90
30069;DHT22;16894;49.456;10.644;2022-11-18T15:19:04;7.90;99.90
30069;DHT22;16894;49.456;10.644;2022-11-18T15:21:30;7.90;99.90
30069;DHT22;16894;49.456;10.644;2022-11-18T15:23:56;7.90;99.90
30069;DHT22;16894;49.456;10.644;2022-11-18T15:26:33;7.90;99.90
30069;DHT22;16894;49.456;10.644;2022-11-18T15:29:00;7.90;99.90
30069;DHT22;16894;49.456;10.644;2022-11-18T15:31:26;7.90;99.90
30069;DHT22;16894;49.456;10.644;2022-11-18T15:33:52;7.90;99.90
30069;DHT22;16894;49.456;10.644;2022-11-18T15:36:20;7.90;99.90
30069;DHT22;16894;49.456;10.644;2022-11-18T15:38:46;7.90;99.90
30069;DHT22;16894;49.456;10.644;2022-11-18T15:41:31;7.90;99.90
30069;DHT22;16894;49.456;10.644;2022-11-18T15:44:15;7.90;99.90
30069;DHT22;16894;49.456;10.644;2022-11-18T15:46:41;7.90;99.90
30069;DHT22;16894;49.456;10.644;2022-11-18T15:49:11;7.90;99.90
30069;DHT22;16894;49.456;10.644;2022-11-18T15:51:37;7.90;99.90
30069;DHT22;16894;49.456;10.644;2022-11-18T15:54:04;7.90;99.90
30069;DHT22;16894;49.456;10.644;2022-11-18T15:56:31;7.90;99.90
30069;DHT22;16894;49.456;10.644;2022-11-18T15:59:01;7.90;99.90
30069;DHT22;16894;49.456;10.644;2022-11-18T16:01:29;8.00;99.90
30069;DHT22;16894;49.456;10.644;2022-11-18T16:03:55;8.00;99.90
30069;DHT22;16894;49.456;10.644;2022-11-18T16:06:21;7.90;99.90
30069;DHT22;16894;49.456;10.644;2022-11-18T16:08:47;8.00;99.90
30069;DHT22;16894;49.456;10.644;2022-11-18T16:11:15;7.90;99.90
30069;DHT22;16894;49.456;10.644;2022-11-18T16:14:07;8.00;99.90
30069;DHT22;16894;49.456;10.644;2022-11-18T16:16:34;7.90;99.90
30069;DHT22;16894;49.456;10.644;2022-11-18T16:19:01;7.90;99.90
30069;DHT22;16894;49.456;10.644;2022-11-18T16:21:28;8.00;99.90
30069;DHT22;16894;49.456;10.644;2022-11-18T16:23:55;8.00;99.90
30069;DHT22;16894;49.456;10.644;2022-11-18T16:26:23;8.00;99.90
30069;DHT22;16894;49.456;10.644;2022-11-18T16:28:48;7.90;99.90
30069;DHT22;16894;49.456;10.644;2022-11-18T16:31:14;7.90;99.90
30069;DHT22;16894;49.456;10.644;2022-11-18T16:33:58;7.90;99.90
30069;DHT22;16894;49.456;10.644;2022-11-18T16:36:25;7.90;99.90
30069;DHT22;16894;49.456;10.644;2022-11-18T16:38:51;7.90;99.90
30069;DHT22;16894;49.456;10.644;2022-11-18T16:41:17;7.90;99.90
30069;DHT22;16894;49.456;10.644;2022-11-18T16:44:06;7.80;99.90
30069;DHT22;16894;49.456;10.644;2022-11-18T16:46:34;7.80;99.90
30069;DHT22;16894;49.456;10.644;2022-11-18T16:49:00;7.80;99.90
30069;DHT22;16894;49.456;10.644;2022-11-18T16:51:28;7.80;99.90
30069;DHT22;16894;49.456;10.644;2022-11-18T16:54:05;7.80;99.90
30069;DHT22;16894;49.456;10.644;2022-11-18T16:56:32;7.70;99.90
30069;DHT22;16894;49.456;10.644;2022-11-18T16:59:01;7.70;99.90
30069;DHT22;16894;49.456;10.644;2022-11-18T17:01:27;7.70;99.90
30069;DHT22;16894;49.456;10.644;2022-11-18T17:03:53;7.70;99.90
30069;DHT22;16894;49.456;10.644;2022-11-18T17:06:21;7.60;99.90
30069;DHT22;16894;49.456;10.644;2022-11-18T17:08:47;7.60;99.90
30069;DHT22;16894;49.456;10.644;2022-11-18T17:11:13;7.60;99.90
30069;DHT22;16894;49.456;10.644;2022-11-18T17:13:39;7.60;99.90
30069;DHT22;16894;49.456;10.644;2022-11-18T17:16:11;7.60;99.90
30069;DHT22;16894;49.456;10.644;2022-11-18T17:18:37;7.60;99.90
30069;DHT22;16894;49.456;10.644;2022-11-18T17:21:13;7.60;99.90
30069;DHT22;16894;49.456;10.644;2022-11-18T17:23:43;7.60;99.90
30069;DHT22;16894;49.456;10.644;2022-11-18T17:26:08;7.60;99.90
30069;DHT22;16894;49.456;10.644;2022-11-18T17:28:35;7.60;99.90
30069;DHT22;16894;49.456;10.644;2022-11-18T17:33:31;7.60;99.90
30069;DHT22;16894;49.456;10.644;2022-11-18T17:38:34;7.50;99.90
30069;DHT22;16894;49.456;10.644;2022-11-18T17:41:00;7.60;99.90
30069;DHT22;16894;49.456;10.644;2022-11-18T17:43:27;7.60;99.90
30069;DHT22;16894;49.456;10.644;2022-11-18T17:45:53;7.60;99.90
30069;DHT22;16894;49.456;10.644;2022-11-18T17:48:20;7.50;99.90
30069;DHT22;16894;49.456;10.644;2022-11-18T17:50:46;7.50;99.90
30069;DHT22;16894;49.456;10.644;2022-11-18T17:53:12;7.50;99.90
30069;DHT22;16894;49.456;10.644;2022-11-18T17:55:38;7.50;99.90
30069;DHT22;16894;49.456;10.644;2022-11-18T17:58:05;7.50;99.90
30069;DHT22;16894;49.456;10.644;2022-11-18T18:00:30;7.40;99.90
30069;DHT22;16894;49.456;10.644;2022-11-18T18:02:57;7.50;99.90
30069;DHT22;16894;49.456;10.644;2022-11-18T18:05:23;7.40;99.90
30069;DHT22;16894;49.456;10.644;2022-11-18T18:07:48;7.30;99.90
30069;DHT22;16894;49.456;10.644;2022-11-18T18:10:16;7.40;99.90